Time;durP1;ratioP1;P1;durP2;ratioP2;P2;SDS_P1;SDS_P2;PMS_P1;PMS_P2;Temp;Humidity;BMP_temperature;BMP_pressure;BME280_temperature;BME280_humidity;BME280_pressure;Samples;Min_cycle;Max_cycle;Signal;HPM_P1;HPM_P2
2021/12/08 06:59:33;;;;;;;9.50;2.10;;;;;;;2.10;100.00;98979.00;5107664;27;20430;-75
2021/12/08 07:02:11;;;;;;;11.65;2.97;;;;;;;2.13;100.00;98980.53;5054534;28;20032;-75
2021/12/08 07:05:10;;;;;;;13.85;2.60;;;;;;;2.11;100.00;98983.25;5054551;28;20457;-75
2021/12/08 07:07:38;;;;;;;14.18;2.80;;;;;;;1.51;100.00;98885.75;5053937;28;20413;-76
2021/12/08 07:10:07;;;;;;;16.27;2.60;;;;;;;2.09;100.00;98972.16;5036794;28;20108;-75
2021/12/08 07:12:36;;;;;;;13.60;2.47;;;;;;;2.09;100.00;99001.59;5083254;28;20097;-76
2021/12/08 07:15:30;;;;;;;25.27;8.77;;;;;;;1.89;100.00;98955.53;5071113;28;20127;-77
2021/12/08 07:18:01;;;;;;;20.48;6.78;;;;;;;1.64;100.00;98907.22;5069063;28;20036;-74
2021/12/08 07:20:46;;;;;;;17.88;3.47;;;;;;;1.90;100.00;98967.59;5050216;28;20039;-74
2021/12/08 07:23:21;;;;;;;13.88;3.08;;;;;;;2.15;100.00;99007.25;5056269;28;20085;-74
2021/12/08 07:25:52;;;;;;;11.45;2.30;;;;;;;2.13;100.00;99019.56;5057375;28;20035;-73
2021/12/08 07:28:25;;;;;;;11.18;2.67;;;;;;;2.09;100.00;99013.81;5071686;28;20056;-73
2021/12/08 07:31:04;;;;;;;13.55;2.50;;;;;;;2.16;100.00;99007.16;5052687;28;20509;-73
2021/12/08 07:33:30;;;;;;;11.77;2.58;;;;;;;1.72;100.00;98977.69;5069269;28;20043;-73
2021/12/08 07:39:44;;;;;;;12.85;3.53;;;;;;;2.13;100.00;99017.78;5064258;28;20109;-72
2021/12/08 07:42:27;;;;;;;11.90;2.20;;;;;;;1.90;100.00;99009.22;5051038;28;20052;-71
2021/12/08 07:44:57;;;;;;;13.60;2.58;;;;;;;1.80;100.00;98990.91;5052360;28;20017;-75
2021/12/08 07:47:25;;;;;;;17.05;2.60;;;;;;;2.09;100.00;99026.81;5087004;28;20033;-74
2021/12/08 07:49:59;;;;;;;15.52;2.72;;;;;;;1.73;100.00;98957.72;5071413;28;20600;-74
2021/12/08 07:52:33;;;;;;;15.60;2.90;;;;;;;1.71;100.00;98965.63;5053527;28;20035;-76
2021/12/08 07:55:00;;;;;;;21.40;4.03;;;;;;;2.05;100.00;99013.22;5036576;28;20024;-75
2021/12/08 07:57:29;;;;;;;15.27;4.13;;;;;;;1.79;100.00;98960.63;5052720;28;20041;-72
2021/12/08 08:00:00;;;;;;;14.75;3.42;;;;;;;1.97;100.00;99040.81;5086295;28;20047;-72
2021/12/08 08:02:28;;;;;;;17.67;5.05;;;;;;;2.18;100.00;99036.50;5036242;28;20047;-74
2021/12/08 08:04:57;;;;;;;19.98;6.38;;;;;;;2.29;100.00;99022.59;5085107;28;20021;-72
2021/12/08 08:07:23;;;;;;;16.95;3.92;;;;;;;1.73;100.00;98935.13;5051903;28;20029;-72
2021/12/08 08:10:00;;;;;;;18.95;5.85;;;;;;;2.02;100.00;99003.06;5044509;28;20021;-72
2021/12/08 08:12:30;;;;;;;18.80;5.18;;;;;;;1.83;100.00;98992.44;5041363;28;20025;-73
2021/12/08 08:15:00;;;;;;;16.60;3.25;;;;;;;2.04;100.00;99021.13;5057203;28;20451;-72
2021/12/08 08:20:08;;;;;;;14.18;3.25;;;;;;;1.99;100.00;99013.69;5260026;22;20057;-71
2021/12/08 08:22:34;;;;;;;14.98;3.20;;;;;;;1.98;100.00;98999.03;5038743;28;20065;-71
2021/12/08 08:25:03;;;;;;;122.13;56.00;;;;;;;2.16;100.00;99008.91;5033637;28;20061;-71
2021/12/08 08:27:30;;;;;;;38.78;14.15;;;;;;;1.81;100.00;98989.13;5045776;28;20066;-75
2021/12/08 08:29:57;;;;;;;15.43;3.17;;;;;;;1.93;100.00;99019.41;5024963;28;20033;-75
2021/12/08 08:32:32;;;;;;;13.75;3.15;;;;;;;1.40;100.00;98941.22;5038582;28;20033;-72
2021/12/08 08:35:08;;;;;;;11.70;3.33;;;;;;;1.99;100.00;99024.09;5039064;28;20018;-72
2021/12/08 08:37:34;;;;;;;15.05;3.40;;;;;;;1.90;100.00;99029.22;5037118;28;20032;-72
2021/12/08 08:40:08;;;;;;;17.90;4.05;;;;;;;1.86;100.00;99000.84;5038635;28;20025;-75
2021/12/08 08:42:39;;;;;;;11.45;3.40;;;;;;;1.96;100.00;99039.97;5040514;28;20040;-73
2021/12/08 08:45:32;;;;;;;12.13;2.70;;;;;;;1.94;100.00;99043.66;5044661;28;20100;-72
2021/12/08 08:48:01;;;;;;;12.68;2.50;;;;;;;1.98;100.00;99045.91;5041016;28;20037;-71
2021/12/08 08:51:06;;;;;;;16.70;3.72;;;;;;;2.17;100.00;99049.63;5042919;28;20490;-72
2021/12/08 08:53:39;;;;;;;15.90;2.80;;;;;;;2.00;100.00;99022.31;4946344;28;20058;-71
2021/12/08 08:56:13;;;;;;;13.07;2.80;;;;;;;2.00;100.00;99025.78;4979990;28;20030;-72
2021/12/08 08:58:42;;;;;;;;;;;;;;;2.20;100.00;99052.84;4977129;28;20070;-73
2021/12/08 09:01:25;;;;;;;11.57;2.60;;;;;;;2.23;100.00;99057.78;4959509;28;19962;-71
2021/12/08 09:04:06;;;;;;;14.52;3.25;;;;;;;1.85;100.00;99025.22;4973626;28;20480;-74
2021/12/08 09:06:38;;;;;;;12.77;2.55;;;;;;;2.18;100.00;99057.34;4972725;28;20590;-73
2021/12/08 09:09:11;;;;;;;11.50;2.45;;;;;;;2.25;100.00;99039.44;4951816;29;20149;-73
2021/12/08 09:11:43;;;;;;;12.93;3.10;;;;;;;2.10;100.00;99059.72;4953531;29;20526;-73
2021/12/08 09:14:18;;;;;;;12.45;2.60;;;;;;;1.81;100.00;99000.38;4934378;28;20496;-72
2021/12/08 09:17:12;;;;;;;13.73;2.60;;;;;;;2.15;100.00;99067.97;4971635;28;20038;-72
2021/12/08 09:19:45;;;;;;;13.32;2.55;;;;;;;2.12;100.00;99063.03;4910719;29;20057;-72
2021/12/08 09:22:13;;;;;;;14.70;2.90;;;;;;;2.17;100.00;99080.88;4894241;29;20056;-72
2021/12/08 09:24:48;;;;;;;12.98;2.42;;;;;;;2.12;100.00;99078.66;4895307;29;20041;-72
2021/12/08 09:27:24;;;;;;;15.32;2.47;;;;;;;1.99;100.00;99050.16;4895304;29;20096;-72
2021/12/08 09:29:57;;;;;;;9.02;2.20;;;;;;;2.15;100.00;99056.75;4927464;29;20043;-73
2021/12/08 09:32:35;;;;;;;9.47;2.30;;;;;;;2.14;100.00;99055.09;4902039;29;20529;-74
2021/12/08 09:35:16;;;;;;;14.60;2.10;;;;;;;1.79;100.00;99002.25;4934395;29;20115;-72
2021/12/08 09:37:52;;;;;;;12.85;2.90;;;;;;;2.48;100.00;99081.88;4932936;29;20406;-71
2021/12/08 09:40:29;;;;;;;18.55;3.28;;;;;;;2.26;100.00;99049.72;4934001;29;20027;-72
2021/12/08 09:43:01;;;;;;;11.82;2.67;;;;;;;2.11;100.00;99050.13;4933565;29;20028;-71
2021/12/08 09:45:32;;;;;;;11.90;2.38;;;;;;;2.51;100.00;99084.22;4928002;29;20063;-72
2021/12/08 09:48:02;;;;;;;14.68;2.42;;;;;;;2.34;100.00;99046.50;4932871;29;20028;-72
2021/12/08 09:50:28;;;;;;;15.20;4.47;;;;;;;2.70;100.00;99087.00;4917948;29;20047;-72
2021/12/08 09:52:55;;;;;;;10.93;2.65;;;;;;;2.56;100.00;99034.31;4933412;29;20024;-70
2021/12/08 09:55:24;;;;;;;14.98;2.92;;;;;;;2.71;100.00;99080.81;4902232;29;20028;-72
2021/12/08 09:57:50;;;;;;;13.63;2.90;;;;;;;2.03;100.00;98989.06;4976922;28;20145;-72
2021/12/08 10:00:24;;;;;;;9.20;2.53;;;;;;;2.77;100.00;99105.56;4993618;28;20105;-72
2021/12/08 10:02:57;;;;;;;15.35;3.40;;;;;;;2.77;100.00;99104.72;4995146;28;20022;-71
2021/12/08 10:05:30;;;;;;;17.95;4.25;;;;;;;2.85;100.00;99092.72;4993670;28;20038;-71
2021/12/08 10:07:57;;;;;;;12.50;2.75;;;;;;;2.92;100.00;99087.81;4993503;28;20052;-73
2021/12/08 10:10:23;;;;;;;12.93;2.65;;;;;;;2.43;100.00;99043.16;4958070;28;20099;-71
2021/12/08 10:12:50;;;;;;;11.48;3.00;;;;;;;2.16;100.00;99014.13;4974953;28;20096;-71
2021/12/08 10:15:18;;;;;;;11.23;3.05;;;;;;;2.77;100.00;99110.78;4974301;28;20381;-70
2021/12/08 10:17:45;;;;;;;9.65;2.85;;;;;;;2.80;100.00;99128.75;4971968;28;20114;-72
2021/12/08 10:20:28;;;;;;;18.33;6.40;;;;;;;2.58;100.00;99061.09;5478459;22;20094;-77
2021/12/08 10:23:15;;;;;;;17.90;5.38;;;;;;;2.91;100.00;99136.53;4970077;28;20054;-75
2021/12/08 10:25:55;;;;;;;14.10;4.07;;;;;;;2.56;100.00;99097.69;4970561;28;20039;-76
2021/12/08 10:28:27;;;;;;;10.95;3.35;;;;;;;2.82;100.00;99120.81;4962181;28;20047;-76
2021/12/08 10:31:05;;;;;;;10.07;3.13;;;;;;;3.06;100.00;99142.25;4979855;28;20019;-76
2021/12/08 10:37:01;;;;;;;53.15;20.58;;;;;;;3.02;100.00;99129.59;4894193;29;20222;-75
2021/12/08 10:39:47;;;;;;;12.30;3.38;;;;;;;3.06;100.00;99126.59;4880044;29;20460;-76
2021/12/08 10:42:26;;;;;;;9.30;2.78;;;;;;;2.82;100.00;99092.97;4888608;29;20032;-75
2021/12/08 10:47:44;;;;;;;84.50;36.40;;;;;;;2.89;100.00;99127.19;4896879;29;20094;-75
2021/12/08 10:56:06;;;;;;;11.00;3.13;;;;;;;2.97;100.00;99116.94;4880363;29;20088;-76
2021/12/08 10:58:35;;;;;;;9.27;3.17;;;;;;;3.14;100.00;99131.22;4860059;29;20059;-76
2021/12/08 11:01:19;;;;;;;14.45;3.70;;;;;;;2.94;100.00;99088.53;4891418;29;20080;-76
2021/12/08 11:03:47;;;;;;;13.25;3.70;;;;;;;3.24;100.00;99150.34;4894930;29;20029;-73
2021/12/08 11:06:16;;;;;;;11.75;3.72;;;;;;;3.17;100.00;99149.22;4945728;28;20059;-75
2021/12/08 11:08:47;;;;;;;11.25;3.83;;;;;;;3.23;100.00;99147.88;4986580;28;20062;-75
2021/12/08 11:11:35;;;;;;;6.82;3.10;;;;;;;3.07;100.00;99127.47;4988633;28;20057;-75
2021/12/08 11:14:05;;;;;;;11.88;3.92;;;;;;;3.22;100.00;99101.88;4991055;28;20119;-76
2021/12/08 11:16:35;;;;;;;8.65;3.90;;;;;;;3.13;100.00;99117.34;4987449;28;20097;-75
2021/12/08 11:19:09;;;;;;;12.48;3.63;;;;;;;3.21;100.00;99155.81;4970028;28;20370;-76
2021/12/08 11:21:47;;;;;;;10.80;3.63;;;;;;;4.11;100.00;99151.72;4969047;28;20050;-76
2021/12/08 11:24:32;;;;;;;9.25;3.33;;;;;;;4.07;100.00;99137.31;4938045;28;20778;-75
2021/12/08 11:27:00;;;;;;;8.98;3.20;;;;;;;4.18;100.00;99075.31;4954856;28;20031;-75
2021/12/08 11:29:42;;;;;;;10.55;2.80;;;;;;;4.37;100.00;99154.72;4971504;28;20023;-75
2021/12/08 11:32:18;;;;;;;10.05;3.38;;;;;;;3.60;100.00;99093.41;4981601;28;20081;-80
2021/12/08 11:34:51;;;;;;;10.20;2.92;;;;;;;4.07;100.00;99151.19;4975109;28;20487;-81
2021/12/08 11:37:24;;;;;;;11.88;3.40;;;;;;;3.54;100.00;99105.22;4958050;28;20026;-78
2021/12/08 11:40:04;;;;;;;11.05;3.40;;;;;;;3.85;100.00;99156.59;4955921;28;20026;-76
2021/12/08 11:42:35;;;;;;;9.15;3.42;;;;;;;3.67;100.00;99151.16;4969017;28;20132;-78
2021/12/08 11:45:16;;;;;;;11.70;3.30;;;;;;;3.46;100.00;99127.69;4984419;28;20030;-76
2021/12/08 11:47:44;;;;;;;11.65;3.45;;;;;;;3.37;100.00;99107.59;4977250;28;20027;-77
2021/12/08 11:50:21;;;;;;;13.02;3.50;;;;;;;3.78;100.00;99117.13;4975188;28;20519;-76
2021/12/08 11:52:54;;;;;;;12.98;4.97;;;;;;;4.35;100.00;99131.31;4969654;28;20050;-81
2021/12/08 11:55:22;;;;;;;10.75;3.10;;;;;;;4.58;100.00;99160.66;4973858;28;20057;-76
2021/12/08 11:57:53;;;;;;;9.07;2.78;;;;;;;4.50;100.00;99144.84;4983879;28;20165;-76
2021/12/08 12:00:28;;;;;;;8.50;3.08;;;;;;;4.66;100.00;99146.09;4976317;28;20051;-77
2021/12/08 12:03:00;;;;;;;;;;;;;;;5.31;100.00;99147.16;4985989;28;20030;-78
2021/12/08 12:05:35;;;;;;;11.15;2.65;;;;;;;4.99;100.00;99160.53;4976409;28;19957;-77
2021/12/08 12:08:03;;;;;;;8.98;3.00;;;;;;;4.37;100.00;99098.03;4975211;28;20027;-78
2021/12/08 12:10:34;;;;;;;8.95;2.80;;;;;;;4.54;100.00;99171.50;4981404;28;20022;-79
2021/12/08 12:13:08;;;;;;;6.93;2.70;;;;;;;5.09;100.00;99126.56;4982673;28;20031;-81
2021/12/08 12:15:47;;;;;;;8.55;2.40;;;;;;;4.99;100.00;99098.59;4995694;28;20046;-81
2021/12/08 12:18:15;;;;;;;7.80;2.70;;;;;;;5.38;100.00;99081.97;4989439;28;20062;-80
2021/12/08 12:20:53;;;;;;;8.13;2.30;;;;;;;5.68;100.00;99148.16;5369579;23;20477;31
2021/12/08 12:23:56;;;;;;;9.88;2.30;;;;;;;6.47;100.00;99150.31;4984997;28;20078;-80
2021/12/08 12:26:55;;;;;;;8.02;2.30;;;;;;;6.87;100.00;99152.53;4974521;28;20107;-80
2021/12/08 12:29:58;;;;;;;8.00;2.42;;;;;;;7.63;100.00;99147.69;4987710;28;20042;-78
2021/12/08 12:32:31;;;;;;;8.27;2.40;;;;;;;10.08;86.42;99152.44;4972906;28;20034;-79
2021/12/08 12:35:22;;;;;;;7.93;2.33;;;;;;;11.75;75.35;99166.84;4990193;28;20054;-77
2021/12/08 12:37:59;;;;;;;9.05;2.42;;;;;;;11.61;74.69;99159.72;4991240;28;20258;-78
2021/12/08 12:40:47;;;;;;;10.05;2.75;;;;;;;9.40;83.42;99172.19;4992236;28;20086;-77
2021/12/08 12:43:36;;;;;;;8.77;3.00;;;;;;;11.09;75.97;99142.81;4975093;28;20095;-77
2021/12/08 12:46:23;;;;;;;10.27;3.67;;;;;;;9.65;82.46;99140.53;4972153;28;20027;-78
2021/12/08 12:48:52;;;;;;;10.90;3.00;;;;;;;10.76;75.54;99118.47;4967696;28;20023;-78
2021/12/08 12:51:50;;;;;;;9.13;2.50;;;;;;;11.48;68.83;99136.53;4979453;28;20027;-79
2021/12/08 12:54:26;;;;;;;9.95;2.67;;;;;;;11.66;69.14;99165.28;4947653;29;20165;-79
2021/12/08 12:56:58;;;;;;;8.60;2.80;;;;;;;11.06;70.22;99140.53;4932587;29;20063;-79
2021/12/08 12:59:41;;;;;;;11.07;3.42;;;;;;;10.74;75.28;99147.72;4930075;29;20074;-78
2021/12/08 13:02:10;;;;;;;15.45;4.63;;;;;;;10.32;76.45;99180.56;4927765;29;20050;-78
2021/12/08 13:04:51;;;;;;;11.32;2.92;;;;;;;11.61;68.32;99186.97;4940534;29;20115;-79
2021/12/08 13:07:20;;;;;;;11.55;3.08;;;;;;;10.06;73.96;99177.34;4938089;29;20035;-79
2021/12/08 13:09:59;;;;;;;11.57;3.28;;;;;;;8.11;86.17;99164.72;4907121;29;20032;-78
2021/12/08 13:12:40;;;;;;;16.25;3.38;;;;;;;7.04;97.31;99210.41;4906106;29;20035;-83
2021/12/08 13:15:28;;;;;;;15.57;5.68;;;;;;;6.63;100.00;99204.75;4939896;29;20055;-80
2021/12/08 13:18:09;;;;;;;12.38;3.70;;;;;;;5.89;100.00;99219.53;4941456;29;20040;-77
2021/12/08 13:20:55;;;;;;;13.40;4.40;;;;;;;5.41;100.00;99244.84;4921205;29;20023;-78
2021/12/08 13:23:27;;;;;;;11.18;3.70;;;;;;;5.15;100.00;99197.44;4930574;29;20074;-77
2021/12/08 13:26:06;;;;;;;13.18;4.03;;;;;;;5.53;100.00;99234.22;4937300;29;20054;-77
2021/12/08 13:28:50;;;;;;;11.25;3.80;;;;;;;5.38;100.00;99161.34;4918475;29;20040;-80
2021/12/08 13:31:48;;;;;;;13.00;4.20;;;;;;;4.85;100.00;99198.41;4946923;28;20572;-77
2021/12/08 13:34:10;;;;;;;15.55;6.15;;;;;;;4.94;100.00;99223.75;4974073;28;20272;-78
2021/12/08 13:36:46;;;;;;;12.77;3.35;;;;;;;4.55;100.00;99196.72;4977566;28;20026;-79
2021/12/08 13:39:23;;;;;;;112.57;50.05;;;;;;;4.31;100.00;99199.66;4970163;28;20027;-78
2021/12/08 13:42:05;;;;;;;11.23;3.28;;;;;;;4.15;100.00;99197.53;4948971;29;20516;-78
2021/12/08 13:44:45;;;;;;;11.60;3.28;;;;;;;4.64;100.00;99226.44;4967262;28;20027;-78
2021/12/08 13:47:46;;;;;;;8.10;2.95;;;;;;;5.13;100.00;99263.97;4960836;28;20023;-78
2021/12/08 13:50:23;;;;;;;11.07;3.10;;;;;;;4.63;100.00;99280.50;4966842;28;20039;-78
2021/12/08 13:53:10;;;;;;;10.68;3.15;;;;;;;5.04;100.00;99262.97;4943617;28;20035;-78
2021/12/08 13:55:44;;;;;;;8.98;2.42;;;;;;;4.74;100.00;99274.34;4959295;28;20400;-77
2021/12/08 13:58:12;;;;;;;21.67;7.30;;;;;;;4.43;100.00;99266.56;4963777;28;20031;-80
2021/12/08 14:00:55;;;;;;;11.55;3.00;;;;;;;4.19;100.00;99246.78;4977280;28;20029;-76
2021/12/08 14:03:44;;;;;;;14.15;3.65;;;;;;;4.24;100.00;99251.63;4981867;28;20461;-76
2021/12/08 14:06:13;;;;;;;12.07;3.05;;;;;;;4.14;100.00;99237.69;5052592;23;20041;-79
2021/12/08 14:08:43;;;;;;;12.88;3.20;;;;;;;4.12;100.00;99287.44;5011299;28;20129;-78
2021/12/08 14:11:18;;;;;;;11.07;3.15;;;;;;;4.00;100.00;99287.66;5024470;28;20017;-78
2021/12/08 14:13:50;;;;;;;12.27;3.05;;;;;;;3.95;100.00;99278.44;5024369;28;20041;-79
2021/12/08 14:16:19;;;;;;;11.05;3.38;;;;;;;3.70;100.00;99248.31;5025717;28;20053;-77
2021/12/08 14:18:46;;;;;;;12.52;2.90;;;;;;;4.12;100.00;99291.84;4991980;28;20042;-76
2021/12/08 14:21:24;;;;;;;11.57;3.17;;;;;;;3.76;100.00;99260.03;4993217;28;20051;-76
2021/12/08 14:23:54;;;;;;;9.88;2.83;;;;;;;3.67;100.00;99263.41;5009555;28;20057;-77
2021/12/08 14:26:25;;;;;;;9.43;3.10;;;;;;;3.84;100.00;99320.28;5012510;28;20050;-77
2021/12/08 14:28:59;;;;;;;11.82;3.38;;;;;;;3.90;100.00;99282.38;4994262;28;20022;-77
2021/12/08 14:31:35;;;;;;;10.18;3.28;;;;;;;3.69;100.00;99277.16;4995352;28;20033;-77
2021/12/08 14:34:16;;;;;;;13.02;4.38;;;;;;;3.70;100.00;99282.25;4987883;28;20022;-76
2021/12/08 14:36:45;;;;;;;10.77;3.25;;;;;;;3.87;100.00;99303.53;5011731;28;20464;-76
2021/12/08 14:39:30;;;;;;;12.98;3.42;;;;;;;3.90;100.00;99316.31;4990063;28;20033;-79
2021/12/08 14:42:01;;;;;;;;;;;;;;;4.05;100.00;99304.59;5008670;28;20010;-77
2021/12/08 14:44:37;;;;;;;17.02;3.60;;;;;;;3.28;100.00;99244.84;5002002;28;20369;-77
2021/12/08 14:47:23;;;;;;;11.73;3.78;;;;;;;3.60;100.00;99324.91;5001876;28;20038;-77
2021/12/08 14:49:56;;;;;;;9.90;3.67;;;;;;;3.71;100.00;99324.84;4983392;28;20146;-77
2021/12/08 14:52:25;;;;;;;12.27;3.95;;;;;;;3.86;100.00;99339.28;4996295;28;20054;-77
2021/12/08 14:54:54;;;;;;;12.90;3.17;;;;;;;3.90;100.00;99334.59;4999533;28;20023;-77
2021/12/08 14:57:32;;;;;;;11.27;3.35;;;;;;;3.20;100.00;99278.53;5002254;28;20026;-77
2021/12/08 15:00:13;;;;;;;64.30;25.05;;;;;;;3.87;100.00;99334.88;5001578;28;20088;-79
2021/12/08 15:02:43;;;;;;;10.85;3.90;;;;;;;3.41;100.00;99274.22;5000523;28;20023;-77
2021/12/08 15:05:32;;;;;;;12.73;3.13;;;;;;;3.55;100.00;99340.94;5006757;28;21393;-77
2021/12/08 15:08:10;;;;;;;9.88;3.22;;;;;;;3.41;100.00;99299.47;5010324;28;20559;-77
2021/12/08 15:10:37;;;;;;;23.92;9.32;;;;;;;3.61;100.00;99356.13;5000534;28;20385;-78
2021/12/08 15:13:18;;;;;;;10.88;3.22;;;;;;;3.40;100.00;99344.78;4999998;28;20042;-77
2021/12/08 15:15:50;;;;;;;9.25;3.15;;;;;;;3.00;100.00;99299.25;5003282;28;20035;-77
2021/12/08 15:18:17;;;;;;;12.13;3.30;;;;;;;3.17;100.00;99299.66;4997036;28;20062;-77
2021/12/08 15:20:47;;;;;;;13.38;4.80;;;;;;;3.62;100.00;99360.38;4991273;28;20030;-76
2021/12/08 15:23:32;;;;;;;10.52;3.67;;;;;;;3.44;100.00;99357.47;5012575;28;20064;-76
2021/12/08 15:26:04;;;;;;;13.73;3.60;;;;;;;3.25;100.00;99352.91;5016923;28;20482;-77
2021/12/08 15:28:41;;;;;;;15.40;5.60;;;;;;;3.41;100.00;99364.72;5015612;28;20026;-81
2021/12/08 15:31:09;;;;;;;13.02;3.78;;;;;;;3.17;100.00;99351.84;5013629;28;20019;-77
2021/12/08 15:33:37;;;;;;;11.80;3.50;;;;;;;3.11;100.00;99374.00;5014626;28;20033;-77
2021/12/08 15:36:16;;;;;;;9.68;3.58;;;;;;;3.15;100.00;99359.78;5013331;28;20034;-78
2021/12/08 15:38:57;;;;;;;13.13;3.30;;;;;;;3.21;100.00;99384.56;5031175;28;20030;-78
2021/12/08 15:41:32;;;;;;;9.13;3.42;;;;;;;3.01;100.00;99365.25;4996864;28;20042;-79
2021/12/08 15:44:12;;;;;;;10.82;3.42;;;;;;;3.21;100.00;99388.00;5015098;28;20096;-79
2021/12/08 15:46:43;;;;;;;9.18;3.78;;;;;;;3.35;100.00;99379.06;5002060;28;20022;-79
2021/12/08 15:49:11;;;;;;;12.15;3.83;;;;;;;3.20;100.00;99388.94;5009333;28;20026;-78
2021/12/08 15:51:41;;;;;;;13.15;3.65;;;;;;;3.05;100.00;99397.97;5011550;28;20018;-78
2021/12/08 15:54:17;;;;;;;12.10;4.30;;;;;;;3.07;100.00;99398.69;5510796;23;20072;-79
2021/12/08 15:56:44;;;;;;;15.02;4.15;;;;;;;2.84;100.00;99390.88;4989056;28;20040;-78
2021/12/08 15:59:28;;;;;;;13.75;4.32;;;;;;;2.55;100.00;99361.84;4978164;28;20493;-79
2021/12/08 16:01:54;;;;;;;11.02;4.03;;;;;;;2.79;100.00;99403.41;4970675;28;20043;-79
2021/12/08 16:04:28;;;;;;;11.00;3.90;;;;;;;2.85;100.00;99422.97;4949737;28;20028;-76
2021/12/08 16:06:56;;;;;;;10.60;4.63;;;;;;;2.88;100.00;99428.81;4975965;28;20026;-76
2021/12/08 16:09:31;;;;;;;13.02;3.83;;;;;;;2.80;100.00;99406.88;4966515;28;20035;-76
2021/12/08 16:11:59;;;;;;;9.45;3.72;;;;;;;2.74;100.00;99420.38;4997446;23;20045;-77
2021/12/08 16:14:31;;;;;;;9.38;4.05;;;;;;;2.78;100.00;99414.81;5007290;23;20039;-76
2021/12/08 16:17:19;;;;;;;11.55;3.70;;;;;;;2.71;100.00;99409.22;5001529;28;20038;-78
2021/12/08 16:19:52;;;;;;;9.13;4.03;;;;;;;2.77;100.00;99410.56;5000868;28;20053;-78
2021/12/08 16:22:22;;;;;;;9.90;3.88;;;;;;;2.75;100.00;99411.59;5031357;28;20114;-77
2021/12/08 16:24:49;;;;;;;12.15;4.25;;;;;;;2.70;100.00;99412.78;5030038;28;20061;-78
2021/12/08 16:27:22;;;;;;;9.40;3.97;;;;;;;2.65;100.00;99421.91;5017001;28;20022;-80
2021/12/08 16:29:49;;;;;;;12.30;4.68;;;;;;;2.74;100.00;99439.44;5009090;28;20018;-79
2021/12/08 16:32:31;;;;;;;10.00;3.92;;;;;;;2.84;100.00;99434.34;4998071;28;20039;-80
2021/12/08 16:35:09;;;;;;;22.25;8.30;;;;;;;2.69;100.00;99416.34;5014905;28;20014;-80
2021/12/08 16:37:41;;;;;;;10.98;4.53;;;;;;;2.75;100.00;99403.78;4981976;28;20042;-80
2021/12/08 16:43:05;;;;;;;10.48;4.07;;;;;;;2.69;100.00;99394.66;4938647;28;20051;-81
2021/12/08 16:45:53;;;;;;;;;;;;;;;2.82;100.00;99436.25;4939493;29;20147;-81
2021/12/08 16:48:29;;;;;;;11.48;4.25;;;;;;;2.30;100.00;99389.75;4940434;29;19945;-81
2021/12/08 16:50:55;;;;;;;11.80;3.78;;;;;;;2.35;100.00;99435.47;4942440;29;20155;-81
2021/12/08 16:53:24;;;;;;;14.68;3.53;;;;;;;1.98;100.00;99391.34;4939005;29;20050;-80
2021/12/08 16:56:01;;;;;;;12.25;4.00;;;;;;;2.27;100.00;99436.03;4901352;29;20066;-78
2021/12/08 16:58:28;;;;;;;9.85;3.72;;;;;;;2.30;100.00;99462.69;4900356;29;20072;-78
2021/12/08 17:00:55;;;;;;;21.48;7.38;;;;;;;2.40;100.00;99457.63;4920667;29;20047;-76
2021/12/08 17:03:23;;;;;;;9.05;3.60;;;;;;;2.23;100.00;99419.00;4929351;29;20110;-80
2021/12/08 17:05:54;;;;;;;9.93;3.90;;;;;;;2.30;100.00;99433.22;4931169;29;20026;-79
2021/12/08 17:08:30;;;;;;;10.07;3.65;;;;;;;2.50;100.00;99442.97;4919561;29;20087;-80
2021/12/08 17:11:19;;;;;;;9.27;3.95;;;;;;;2.05;100.00;99411.59;4920631;29;20032;-81
2021/12/08 17:14:22;;;;;;;13.13;4.20;;;;;;;2.25;100.00;99449.19;4901656;29;20025;-77
2021/12/08 17:16:48;;;;;;;13.57;4.93;;;;;;;2.28;100.00;99464.56;4878753;29;20045;-79
2021/12/08 17:19:17;;;;;;;16.48;4.35;;;;;;;1.97;100.00;99424.31;4892313;28;20051;-77
2021/12/08 17:21:46;;;;;;;15.70;4.68;;;;;;;1.97;100.00;99445.16;4973064;28;20030;-79
2021/12/08 17:24:26;;;;;;;;;;;;;;;;;;;;;
2021/12/08 17:26:54;;;;;;;25.92;10.27;;;;;;;1.96;100.00;99420.06;4978427;28;20031;-80
2021/12/08 17:29:28;;;;;;;13.60;4.78;;;;;;;2.16;100.00;99472.44;4976810;28;20043;-77
2021/12/08 17:31:58;;;;;;;9.77;3.78;;;;;;;1.91;100.00;99443.00;4951172;28;20484;-78
2021/12/08 17:34:25;;;;;;;14.45;5.70;;;;;;;1.74;100.00;99417.38;4949487;28;20038;-78
2021/12/08 17:36:51;;;;;;;11.38;4.18;;;;;;;1.87;100.00;99444.19;4975273;28;20023;-77
2021/12/08 17:39:18;;;;;;;14.25;5.18;;;;;;;2.00;100.00;99451.91;4972882;28;20054;-78
2021/12/08 17:41:47;;;;;;;11.80;4.68;;;;;;;1.70;100.00;99418.53;4961083;28;20026;-79
2021/12/08 17:44:17;;;;;;;13.75;5.90;;;;;;;1.94;100.00;99447.16;4951074;28;20121;-79
2021/12/08 17:46:55;;;;;;;12.43;5.40;;;;;;;1.93;100.00;99455.91;5010395;28;20043;-78
2021/12/08 17:49:28;;;;;;;12.65;4.63;;;;;;;1.80;100.00;99432.56;4973931;28;20042;-79
2021/12/08 17:51:55;;;;;;;18.75;7.15;;;;;;;2.01;100.00;99456.19;4974785;28;20035;-81
2021/12/08 17:54:21;;;;;;;14.38;4.90;;;;;;;2.12;100.00;99476.25;4958502;28;20038;-79
2021/12/08 17:56:47;;;;;;;13.70;4.88;;;;;;;1.94;100.00;99486.22;4975464;28;20035;-79
2021/12/08 17:59:28;;;;;;;19.20;6.18;;;;;;;1.95;100.00;99464.44;4942939;28;20113;-83
2021/12/08 18:01:56;;;;;;;13.02;5.38;;;;;;;2.04;100.00;99476.78;5076623;23;20053;-79
2021/12/08 18:04:22;;;;;;;15.35;5.43;;;;;;;1.57;100.00;99431.59;5038403;28;20125;-80
2021/12/08 18:06:51;;;;;;;10.57;5.05;;;;;;;1.59;100.00;99440.09;5022742;28;20088;-85
2021/12/08 18:09:26;;;;;;;12.27;4.80;;;;;;;1.80;100.00;99448.16;5042799;28;20052;-83
2021/12/08 18:15:06;;;;;;;12.27;4.50;;;;;;;1.70;100.00;99460.16;4976011;28;20062;-80
2021/12/08 18:17:37;;;;;;;13.88;5.05;;;;;;;2.02;100.00;99496.88;4959259;28;20057;-77
2021/12/08 18:20:14;;;;;;;15.57;4.85;;;;;;;1.93;100.00;99488.00;4959016;28;20121;-78
2021/12/08 18:22:43;;;;;;;14.23;5.20;;;;;;;1.65;100.00;99470.91;4977057;28;20031;-78
2021/12/08 18:25:15;;;;;;;10.68;4.80;;;;;;;1.78;100.00;99518.53;4990868;28;20432;-76
2021/12/08 18:27:41;;;;;;;12.30;4.80;;;;;;;1.71;100.00;99500.88;4974954;28;20102;-77
2021/12/08 18:30:09;;;;;;;15.52;5.10;;;;;;;1.55;100.00;99475.13;4957684;28;20034;-77
2021/12/08 18:32:50;;;;;;;14.73;4.40;;;;;;;1.42;100.00;99462.13;4993872;28;20749;-78
2021/12/08 18:35:29;;;;;;;12.85;4.70;;;;;;;1.44;100.00;99461.06;4960575;28;20039;-77
2021/12/08 18:38:03;;;;;;;12.48;4.68;;;;;;;1.35;100.00;99464.31;4991688;28;20046;-77
2021/12/08 18:40:40;;;;;;;13.50;5.28;;;;;;;1.28;100.00;99457.06;4976691;28;20042;-77
2021/12/08 18:43:20;;;;;;;;;;;;;;;;;;;;;
2021/12/08 18:46:12;;;;;;;14.38;5.35;;;;;;;1.51;100.00;99505.72;5017655;28;20101;-79
2021/12/08 18:48:54;;;;;;;13.63;5.32;;;;;;;1.53;100.00;99490.81;5029277;28;20479;-79
2021/12/08 18:51:59;;;;;;;13.27;6.05;;;;;;;1.70;100.00;99527.81;5033480;28;20112;-77
2021/12/08 18:54:40;;;;;;;11.88;5.20;;;;;;;1.31;100.00;99465.47;5047848;28;20089;-78
2021/12/08 18:57:06;;;;;;;47.13;19.73;;;;;;;1.41;100.00;99505.53;5025694;28;20026;-75
2021/12/08 18:59:31;;;;;;;18.40;8.65;;;;;;;1.79;100.00;99537.59;5014869;28;20495;-76
2021/12/08 19:02:08;;;;;;;15.25;5.38;;;;;;;1.46;100.00;99521.63;5048042;23;20041;-79
2021/12/08 19:04:45;;;;;;;11.82;5.68;;;;;;;1.53;100.00;99521.22;5032357;28;20026;-78
2021/12/08 19:07:11;;;;;;;13.35;5.38;;;;;;;1.61;100.00;99535.34;5013491;28;20044;-78
2021/12/08 19:09:37;;;;;;;13.73;5.63;;;;;;;1.46;100.00;99550.25;5021577;28;20076;-80
2021/12/08 19:12:06;;;;;;;15.68;6.50;;;;;;;1.46;100.00;99559.84;5012180;28;20462;-77
2021/12/08 19:14:35;;;;;;;14.07;5.80;;;;;;;1.29;100.00;99508.13;5010093;28;20442;-78
2021/12/08 19:17:01;;;;;;;18.92;5.72;;;;;;;1.57;100.00;99562.53;4988083;28;20049;-73
2021/12/08 19:19:30;;;;;;;52.85;16.88;;;;;;;1.67;100.00;99568.75;5014173;28;20036;-76
2021/12/08 19:22:03;;;;;;;13.38;6.20;;;;;;;1.57;100.00;99538.28;4999229;28;20040;-79
2021/12/08 19:24:34;;;;;;;14.40;5.65;;;;;;;1.77;100.00;99573.31;5029453;28;20406;-76
2021/12/08 19:27:01;;;;;;;20.13;6.32;;;;;;;1.87;100.00;99575.16;5026366;28;20403;-76